sensor_id;sensor_type;location;lat;lon;timestamp;temperature;humidity
24402;DHT22;12539;48.808;11.292;2023-01-05T00:01:51;10.50;99.90
24402;DHT22;12539;48.808;11.292;2023-01-05T00:04:17;10.50;99.90
24402;DHT22;12539;48.808;11.292;2023-01-05T00:06:43;10.50;99.90
24402;DHT22;12539;48.808;11.292;2023-01-05T00:09:11;10.50;99.90
24402;DHT22;12539;48.808;11.292;2023-01-05T00:11:37;10.50;99.90
24402;DHT22;12539;48.808;11.292;2023-01-05T00:14:27;10.60;99.90
24402;DHT22;12539;48.808;11.292;2023-01-05T00:17:14;10.50;99.90
24402;DHT22;12539;48.808;11.292;2023-01-05T00:19:58;10.50;99.90
24402;DHT22;12539;48.808;11.292;2023-01-05T00:22:46;10.60;99.90
24402;DHT22;12539;48.808;11.292;2023-01-05T00:27:41;10.60;99.90
24402;DHT22;12539;48.808;11.292;2023-01-05T00:30:09;10.60;99.90
24402;DHT22;12539;48.808;11.292;2023-01-05T00:32:35;10.60;99.90
24402;DHT22;12539;48.808;11.292;2023-01-05T00:35:01;10.60;99.90
24402;DHT22;12539;48.808;11.292;2023-01-05T00:37:30;10.60;99.90
24402;DHT22;12539;48.808;11.292;2023-01-05T00:39:56;10.70;99.90
24402;DHT22;12539;48.808;11.292;2023-01-05T00:42:22;10.70;99.90
24402;DHT22;12539;48.808;11.292;2023-01-05T00:44:47;10.70;99.90
24402;DHT22;12539;48.808;11.292;2023-01-05T00:47:13;10.70;99.90
24402;DHT22;12539;48.808;11.292;2023-01-05T00:49:39;10.70;99.90
24402;DHT22;12539;48.808;11.292;2023-01-05T00:52:05;10.80;99.90
24402;DHT22;12539;48.808;11.292;2023-01-05T00:54:31;10.80;99.90
24402;DHT22;12539;48.808;11.292;2023-01-05T00:56:57;10.80;99.90
24402;DHT22;12539;48.808;11.292;2023-01-05T00:59:22;10.80;99.90
24402;DHT22;12539;48.808;11.292;2023-01-05T01:01:50;10.80;99.90
24402;DHT22;12539;48.808;11.292;2023-01-05T01:04:16;10.90;99.90
24402;DHT22;12539;48.808;11.292;2023-01-05T01:06:42;10.90;99.90
24402;DHT22;12539;48.808;11.292;2023-01-05T01:09:08;10.90;99.90
24402;DHT22;12539;48.808;11.292;2023-01-05T01:11:35;10.90;99.90
24402;DHT22;12539;48.808;11.292;2023-01-05T01:14:01;10.90;99.90
24402;DHT22;12539;48.808;11.292;2023-01-05T01:16:26;10.90;99.90
24402;DHT22;12539;48.808;11.292;2023-01-05T01:18:52;11.00;99.90
24402;DHT22;12539;48.808;11.292;2023-01-05T01:21:18;11.00;99.90
24402;DHT22;12539;48.808;11.292;2023-01-05T01:23:43;11.00;99.90
24402;DHT22;12539;48.808;11.292;2023-01-05T01:26:11;11.00;99.90
24402;DHT22;12539;48.808;11.292;2023-01-05T01:28:38;11.00;99.90
24402;DHT22;12539;48.808;11.292;2023-01-05T01:31:04;11.00;99.90
24402;DHT22;12539;48.808;11.292;2023-01-05T01:33:30;11.00;99.90
24402;DHT22;12539;48.808;11.292;2023-01-05T01:35:56;11.00;99.90
24402;DHT22;12539;48.808;11.292;2023-01-05T01:38:22;11.00;99.90
24402;DHT22;12539;48.808;11.292;2023-01-05T01:40:48;11.00;99.90
24402;DHT22;12539;48.808;11.292;2023-01-05T01:43:53;11.00;99.90
24402;DHT22;12539;48.808;11.292;2023-01-05T01:46:20;11.00;99.90
24402;DHT22;12539;48.808;11.292;2023-01-05T01:51:21;11.10;99.90
24402;DHT22;12539;48.808;11.292;2023-01-05T01:53:51;11.10;99.90
24402;DHT22;12539;48.808;11.292;2023-01-05T01:56:20;11.10;99.90
24402;DHT22;12539;48.808;11.292;2023-01-05T01:58:47;11.00;99.90
24402;DHT22;12539;48.808;11.292;2023-01-05T02:01:13;10.90;99.90
24402;DHT22;12539;48.808;11.292;2023-01-05T02:03:39;10.90;99.90
24402;DHT22;12539;48.808;11.292;2023-01-05T02:06:06;10.80;99.90
24402;DHT22;12539;48.808;11.292;2023-01-05T02:08:32;10.80;99.90
24402;DHT22;12539;48.808;11.292;2023-01-05T02:11:04;10.80;99.90
24402;DHT22;12539;48.808;11.292;2023-01-05T02:27:16;10.70;99.90
24402;DHT22;12539;48.808;11.292;2023-01-05T02:32:30;10.80;99.90
24402;DHT22;12539;48.808;11.292;2023-01-05T02:38:04;10.90;99.90
24402;DHT22;12539;48.808;11.292;2023-01-05T02:40:36;10.80;99.90
24402;DHT22;12539;48.808;11.292;2023-01-05T02:43:03;10.80;99.90
24402;DHT22;12539;48.808;11.292;2023-01-05T02:45:30;10.80;99.90
24402;DHT22;12539;48.808;11.292;2023-01-05T02:47:56;10.80;99.90
24402;DHT22;12539;48.808;11.292;2023-01-05T02:50:34;10.90;99.90
24402;DHT22;12539;48.808;11.292;2023-01-05T02:53:13;10.90;99.90
24402;DHT22;12539;48.808;11.292;2023-01-05T02:56:25;10.90;99.90
24402;DHT22;12539;48.808;11.292;2023-01-05T02:59:24;11.00;99.90
24402;DHT22;12539;48.808;11.292;2023-01-05T03:02:00;11.00;99.90
24402;DHT22;12539;48.808;11.292;2023-01-05T03:04:57;11.10;99.90
24402;DHT22;12539;48.808;11.292;2023-01-05T03:07:31;11.00;99.90
24402;DHT22;12539;48.808;11.292;2023-01-05T03:09:58;11.10;99.90
24402;DHT22;12539;48.808;11.292;2023-01-05T03:12:43;11.00;99.90
24402;DHT22;12539;48.808;11.292;2023-01-05T03:15:30;11.00;99.90
24402;DHT22;12539;48.808;11.292;2023-01-05T03:18:04;11.00;99.90
24402;DHT22;12539;48.808;11.292;2023-01-05T03:20:32;11.00;99.90
24402;DHT22;12539;48.808;11.292;2023-01-05T03:23:01;11.00;99.90
24402;DHT22;12539;48.808;11.292;2023-01-05T03:25:47;11.00;99.90
24402;DHT22;12539;48.808;11.292;2023-01-05T03:28:42;10.90;99.90
24402;DHT22;12539;48.808;11.292;2023-01-05T03:31:40;10.90;99.90
24402;DHT22;12539;48.808;11.292;2023-01-05T03:37:35;10.80;99.90
24402;DHT22;12539;48.808;11.292;2023-01-05T03:40:05;10.90;99.90
24402;DHT22;12539;48.808;11.292;2023-01-05T03:42:32;10.80;99.90
24402;DHT22;12539;48.808;11.292;2023-01-05T03:44:58;10.80;99.90
24402;DHT22;12539;48.808;11.292;2023-01-05T03:47:24;10.90;99.90
24402;DHT22;12539;48.808;11.292;2023-01-05T03:49:50;10.90;99.90
24402;DHT22;12539;48.808;11.292;2023-01-05T03:52:16;10.80;99.90
24402;DHT22;12539;48.808;11.292;2023-01-05T03:54:44;10.80;99.90
24402;DHT22;12539;48.808;11.292;2023-01-05T03:57:10;10.80;99.90
24402;DHT22;12539;48.808;11.292;2023-01-05T03:59:36;10.80;99.90
24402;DHT22;12539;48.808;11.292;2023-01-05T04:02:02;10.80;99.90
24402;DHT22;12539;48.808;11.292;2023-01-05T04:04:29;10.70;99.90
24402;DHT22;12539;48.808;11.292;2023-01-05T04:06:57;10.70;99.90
24402;DHT22;12539;48.808;11.292;2023-01-05T04:09:22;10.70;99.90
24402;DHT22;12539;48.808;11.292;2023-01-05T04:11:48;10.70;99.90
24402;DHT22;12539;48.808;11.292;2023-01-05T04:14:14;10.70;99.90
24402;DHT22;12539;48.808;11.292;2023-01-05T04:16:39;10.70;99.90
24402;DHT22;12539;48.808;11.292;2023-01-05T04:19:05;10.80;99.90
24402;DHT22;12539;48.808;11.292;2023-01-05T04:21:30;10.80;99.90
24402;DHT22;12539;48.808;11.292;2023-01-05T04:23:56;10.80;99.90
24402;DHT22;12539;48.808;11.292;2023-01-05T04:26:22;10.80;99.90
24402;DHT22;12539;48.808;11.292;2023-01-05T04:28:48;10.80;99.90
24402;DHT22;12539;48.808;11.292;2023-01-05T04:31:13;10.80;99.90
24402;DHT22;12539;48.808;11.292;2023-01-05T04:33:39;10.70;99.90
24402;DHT22;12539;48.808;11.292;2023-01-05T04:36:06;10.70;99.90
24402;DHT22;12539;48.808;11.292;2023-01-05T04:38:32;10.80;99.90
24402;DHT22;12539;48.808;11.292;2023-01-05T04:40:58;10.80;99.90
24402;DHT22;12539;48.808;11.292;2023-01-05T04:43:23;10.70;99.90
24402;DHT22;12539;48.808;11.292;2023-01-05T04:45:49;10.70;99.90
24402;DHT22;12539;48.808;11.292;2023-01-05T04:48:15;10.70;99.90
24402;DHT22;12539;48.808;11.292;2023-01-05T04:50:42;10.70;99.90
24402;DHT22;12539;48.808;11.292;2023-01-05T04:53:07;10.70;99.90
24402;DHT22;12539;48.808;11.292;2023-01-05T04:55:33;10.70;99.90
24402;DHT22;12539;48.808;11.292;2023-01-05T04:57:59;10.80;99.90
24402;DHT22;12539;48.808;11.292;2023-01-05T05:00:24;10.70;99.90
24402;DHT22;12539;48.808;11.292;2023-01-05T05:02:50;10.80;99.90
24402;DHT22;12539;48.808;11.292;2023-01-05T05:05:16;10.80;99.90
24402;DHT22;12539;48.808;11.292;2023-01-05T05:07:41;10.80;99.90
24402;DHT22;12539;48.808;11.292;2023-01-05T05:10:07;10.70;99.90
24402;DHT22;12539;48.808;11.292;2023-01-05T05:12:33;10.80;99.90
24402;DHT22;12539;48.808;11.292;2023-01-05T05:14:59;10.80;99.90
24402;DHT22;12539;48.808;11.292;2023-01-05T05:17:25;10.70;99.90
24402;DHT22;12539;48.808;11.292;2023-01-05T05:19:51;10.70;99.90
24402;DHT22;12539;48.808;11.292;2023-01-05T05:22:16;10.70;99.90
24402;DHT22;12539;48.808;11.292;2023-01-05T05:24:42;10.70;99.90
24402;DHT22;12539;48.808;11.292;2023-01-05T05:27:08;10.70;99.90
24402;DHT22;12539;48.808;11.292;2023-01-05T05:29:33;10.70;99.90
24402;DHT22;12539;48.808;11.292;2023-01-05T05:31:59;10.70;99.90
24402;DHT22;12539;48.808;11.292;2023-01-05T05:34:25;10.80;99.90
24402;DHT22;12539;48.808;11.292;2023-01-05T05:36:50;10.80;99.90
24402;DHT22;12539;48.808;11.292;2023-01-05T05:39:16;10.80;99.90
24402;DHT22;12539;48.808;11.292;2023-01-05T05:41:42;10.80;99.90
24402;DHT22;12539;48.808;11.292;2023-01-05T05:44:07;10.80;99.90
24402;DHT22;12539;48.808;11.292;2023-01-05T05:46:33;10.90;99.90
24402;DHT22;12539;48.808;11.292;2023-01-05T05:48:59;10.80;99.90
24402;DHT22;12539;48.808;11.292;2023-01-05T05:51:25;10.80;99.90
24402;DHT22;12539;48.808;11.292;2023-01-05T05:53:52;10.80;99.90
24402;DHT22;12539;48.808;11.292;2023-01-05T05:56:17;10.80;99.90
24402;DHT22;12539;48.808;11.292;2023-01-05T05:58:43;10.80;99.90
24402;DHT22;12539;48.808;11.292;2023-01-05T06:01:10;10.80;99.90
24402;DHT22;12539;48.808;11.292;2023-01-05T06:03:36;10.80;99.90
24402;DHT22;12539;48.808;11.292;2023-01-05T06:06:02;10.80;99.90
24402;DHT22;12539;48.808;11.292;2023-01-05T06:08:28;10.80;99.90
24402;DHT22;12539;48.808;11.292;2023-01-05T06:10:55;10.80;99.90
24402;DHT22;12539;48.808;11.292;2023-01-05T06:13:21;10.80;99.90
24402;DHT22;12539;48.808;11.292;2023-01-05T06:15:47;10.80;99.90
24402;DHT22;12539;48.808;11.292;2023-01-05T06:18:13;10.80;99.90
24402;DHT22;12539;48.808;11.292;2023-01-05T06:20:39;10.80;99.90
24402;DHT22;12539;48.808;11.292;2023-01-05T06:23:04;10.80;99.90
24402;DHT22;12539;48.808;11.292;2023-01-05T06:25:31;10.80;99.90
24402;DHT22;12539;48.808;11.292;2023-01-05T06:27:57;10.80;99.90
24402;DHT22;12539;48.808;11.292;2023-01-05T06:30:22;10.70;99.90
24402;DHT22;12539;48.808;11.292;2023-01-05T06:32:48;10.70;99.90
24402;DHT22;12539;48.808;11.292;2023-01-05T06:35:14;10.70;99.90
24402;DHT22;12539;48.808;11.292;2023-01-05T06:37:39;10.70;99.90
24402;DHT22;12539;48.808;11.292;2023-01-05T06:40:05;10.70;99.90
24402;DHT22;12539;48.808;11.292;2023-01-05T06:42:33;10.70;99.90
24402;DHT22;12539;48.808;11.292;2023-01-05T06:44:58;10.70;99.90
24402;DHT22;12539;48.808;11.292;2023-01-05T06:47:24;10.70;99.90
24402;DHT22;12539;48.808;11.292;2023-01-05T06:49:50;10.70;99.90
24402;DHT22;12539;48.808;11.292;2023-01-05T06:52:15;10.70;99.90
24402;DHT22;12539;48.808;11.292;2023-01-05T06:54:41;10.70;99.90
24402;DHT22;12539;48.808;11.292;2023-01-05T06:57:07;10.70;99.90
24402;DHT22;12539;48.808;11.292;2023-01-05T06:59:32;10.70;99.90
24402;DHT22;12539;48.808;11.292;2023-01-05T07:01:58;10.70;99.90
24402;DHT22;12539;48.808;11.292;2023-01-05T07:04:24;10.80;99.90
24402;DHT22;12539;48.808;11.292;2023-01-05T07:06:49;10.70;99.90
24402;DHT22;12539;48.808;11.292;2023-01-05T07:09:15;10.70;99.90
24402;DHT22;12539;48.808;11.292;2023-01-05T07:11:41;10.70;99.90
24402;DHT22;12539;48.808;11.292;2023-01-05T07:14:06;10.70;99.90
24402;DHT22;12539;48.808;11.292;2023-01-05T07:16:32;10.70;99.90
24402;DHT22;12539;48.808;11.292;2023-01-05T07:18:58;10.80;99.90
24402;DHT22;12539;48.808;11.292;2023-01-05T07:21:23;10.80;99.90
24402;DHT22;12539;48.808;11.292;2023-01-05T07:23:49;10.80;99.90
24402;DHT22;12539;48.808;11.292;2023-01-05T07:26:15;10.80;99.90
24402;DHT22;12539;48.808;11.292;2023-01-05T07:28:40;10.80;99.90
24402;DHT22;12539;48.808;11.292;2023-01-05T07:31:06;10.70;99.90
24402;DHT22;12539;48.808;11.292;2023-01-05T07:33:32;10.80;99.90
24402;DHT22;12539;48.808;11.292;2023-01-05T07:36:04;10.80;99.90
24402;DHT22;12539;48.808;11.292;2023-01-05T07:38:30;10.90;99.90
24402;DHT22;12539;48.808;11.292;2023-01-05T07:41:00;10.90;99.90
24402;DHT22;12539;48.808;11.292;2023-01-05T07:43:26;10.90;99.90
24402;DHT22;12539;48.808;11.292;2023-01-05T07:45:57;10.90;99.90
24402;DHT22;12539;48.808;11.292;2023-01-05T07:48:22;11.00;99.90
24402;DHT22;12539;48.808;11.292;2023-01-05T07:50:48;11.00;99.90
24402;DHT22;12539;48.808;11.292;2023-01-05T07:53:14;11.00;99.90
24402;DHT22;12539;48.808;11.292;2023-01-05T07:55:39;11.00;99.90
24402;DHT22;12539;48.808;11.292;2023-01-05T07:58:05;11.00;99.90
24402;DHT22;12539;48.808;11.292;2023-01-05T08:00:31;11.00;99.90
24402;DHT22;12539;48.808;11.292;2023-01-05T08:02:56;11.00;99.90
24402;DHT22;12539;48.808;11.292;2023-01-05T08:05:22;11.00;99.90
24402;DHT22;12539;48.808;11.292;2023-01-05T08:07:47;11.00;99.90
24402;DHT22;12539;48.808;11.292;2023-01-05T08:10:13;11.00;99.90
24402;DHT22;12539;48.808;11.292;2023-01-05T08:12:54;11.00;99.90
24402;DHT22;12539;48.808;11.292;2023-01-05T08:15:38;11.00;99.90
24402;DHT22;12539;48.808;11.292;2023-01-05T08:18:04;10.90;99.90
24402;DHT22;12539;48.808;11.292;2023-01-05T08:20:29;10.90;99.90
24402;DHT22;12539;48.808;11.292;2023-01-05T08:22:56;10.90;99.90
24402;DHT22;12539;48.808;11.292;2023-01-05T08:25:21;10.90;99.90
24402;DHT22;12539;48.808;11.292;2023-01-05T08:27:47;10.90;99.90
24402;DHT22;12539;48.808;11.292;2023-01-05T08:30:14;10.90;99.90
24402;DHT22;12539;48.808;11.292;2023-01-05T08:32:42;11.00;99.90
24402;DHT22;12539;48.808;11.292;2023-01-05T08:35:08;11.00;99.90
24402;DHT22;12539;48.808;11.292;2023-01-05T08:37:34;11.00;99.90
24402;DHT22;12539;48.808;11.292;2023-01-05T08:40:00;11.00;99.90
24402;DHT22;12539;48.808;11.292;2023-01-05T08:42:25;11.00;99.90
24402;DHT22;12539;48.808;11.292;2023-01-05T08:44:51;11.00;99.90
24402;DHT22;12539;48.808;11.292;2023-01-05T08:47:16;11.10;99.90
24402;DHT22;12539;48.808;11.292;2023-01-05T08:49:42;11.10;99.90
24402;DHT22;12539;48.808;11.292;2023-01-05T08:52:08;11.10;99.90
24402;DHT22;12539;48.808;11.292;2023-01-05T08:54:34;11.10;99.90
24402;DHT22;12539;48.808;11.292;2023-01-05T08:57:00;11.20;99.90
24402;DHT22;12539;48.808;11.292;2023-01-05T08:59:35;11.20;99.90
24402;DHT22;12539;48.808;11.292;2023-01-05T09:02:01;11.30;99.90
24402;DHT22;12539;48.808;11.292;2023-01-05T09:04:26;11.20;99.90
24402;DHT22;12539;48.808;11.292;2023-01-05T09:06:52;11.20;99.90
24402;DHT22;12539;48.808;11.292;2023-01-05T09:09:18;11.30;99.90
24402;DHT22;12539;48.808;11.292;2023-01-05T09:11:43;11.30;99.90
24402;DHT22;12539;48.808;11.292;2023-01-05T09:14:12;11.30;99.90
24402;DHT22;12539;48.808;11.292;2023-01-05T09:16:39;11.30;99.90
24402;DHT22;12539;48.808;11.292;2023-01-05T09:19:05;11.30;99.90
24402;DHT22;12539;48.808;11.292;2023-01-05T09:21:31;11.30;99.90
24402;DHT22;12539;48.808;11.292;2023-01-05T09:23:56;11.30;99.90
24402;DHT22;12539;48.808;11.292;2023-01-05T09:26:22;11.30;99.90
24402;DHT22;12539;48.808;11.292;2023-01-05T09:28:48;11.30;99.90
24402;DHT22;12539;48.808;11.292;2023-01-05T09:31:17;11.20;99.90
24402;DHT22;12539;48.808;11.292;2023-01-05T09:33:43;11.20;99.90
24402;DHT22;12539;48.808;11.292;2023-01-05T09:36:10;11.20;99.90
24402;DHT22;12539;48.808;11.292;2023-01-05T09:38:36;11.30;99.90
24402;DHT22;12539;48.808;11.292;2023-01-05T09:43:36;11.30;99.90
24402;DHT22;12539;48.808;11.292;2023-01-05T09:46:05;11.20;99.90
24402;DHT22;12539;48.808;11.292;2023-01-05T09:48:38;11.20;99.90
24402;DHT22;12539;48.808;11.292;2023-01-05T09:51:04;11.20;99.90
24402;DHT22;12539;48.808;11.292;2023-01-05T09:53:29;11.20;99.90
24402;DHT22;12539;48.808;11.292;2023-01-05T09:55:56;11.30;99.90
24402;DHT22;12539;48.808;11.292;2023-01-05T09:58:29;11.30;99.90
24402;DHT22;12539;48.808;11.292;2023-01-05T10:03:46;11.40;99.90
24402;DHT22;12539;48.808;11.292;2023-01-05T10:06:15;11.40;99.90
24402;DHT22;12539;48.808;11.292;2023-01-05T10:08:44;11.40;99.90
24402;DHT22;12539;48.808;11.292;2023-01-05T10:11:15;11.40;99.90
24402;DHT22;12539;48.808;11.292;2023-01-05T10:14:19;11.40;99.90
24402;DHT22;12539;48.808;11.292;2023-01-05T10:16:47;11.50;99.90
24402;DHT22;12539;48.808;11.292;2023-01-05T10:19:18;11.50;99.90
24402;DHT22;12539;48.808;11.292;2023-01-05T10:24:56;11.50;99.90
24402;DHT22;12539;48.808;11.292;2023-01-05T10:27:42;11.60;99.90
24402;DHT22;12539;48.808;11.292;2023-01-05T10:32:58;11.60;99.90
24402;DHT22;12539;48.808;11.292;2023-01-05T10:35:40;11.60;99.90
24402;DHT22;12539;48.808;11.292;2023-01-05T10:46:28;11.60;99.90
24402;DHT22;12539;48.808;11.292;2023-01-05T10:48:53;11.60;99.90
24402;DHT22;12539;48.808;11.292;2023-01-05T10:51:19;11.60;99.90
24402;DHT22;12539;48.808;11.292;2023-01-05T10:53:46;11.70;99.90
24402;DHT22;12539;48.808;11.292;2023-01-05T10:56:23;11.80;99.90
24402;DHT22;12539;48.808;11.292;2023-01-05T10:59:06;11.90;99.90
24402;DHT22;12539;48.808;11.292;2023-01-05T11:01:32;11.90;99.90
24402;DHT22;12539;48.808;11.292;2023-01-05T11:04:28;12.00;99.90
24402;DHT22;12539;48.808;11.292;2023-01-05T11:07:03;12.00;99.90
24402;DHT22;12539;48.808;11.292;2023-01-05T11:09:29;12.00;99.90
24402;DHT22;12539;48.808;11.292;2023-01-05T11:12:00;12.00;99.90
24402;DHT22;12539;48.808;11.292;2023-01-05T11:14:28;12.00;99.90
24402;DHT22;12539;48.808;11.292;2023-01-05T11:17:04;12.00;99.90
24402;DHT22;12539;48.808;11.292;2023-01-05T11:19:34;12.00;99.90
24402;DHT22;12539;48.808;11.292;2023-01-05T11:22:01;12.10;99.90
24402;DHT22;12539;48.808;11.292;2023-01-05T11:24:34;12.10;99.90
24402;DHT22;12539;48.808;11.292;2023-01-05T11:27:02;12.10;99.90
24402;DHT22;12539;48.808;11.292;2023-01-05T11:29:31;12.10;99.90
24402;DHT22;12539;48.808;11.292;2023-01-05T11:32:03;12.10;99.90
24402;DHT22;12539;48.808;11.292;2023-01-05T11:34:34;12.10;99.90
24402;DHT22;12539;48.808;11.292;2023-01-05T11:37:03;12.00;99.90
24402;DHT22;12539;48.808;11.292;2023-01-05T11:44:45;11.90;99.80
24402;DHT22;12539;48.808;11.292;2023-01-05T11:57:50;11.60;99.50
24402;DHT22;12539;48.808;11.292;2023-01-05T12:00:24;11.70;99.80
24402;DHT22;12539;48.808;11.292;2023-01-05T12:08:18;11.60;99.80
24402;DHT22;12539;48.808;11.292;2023-01-05T12:11:04;11.60;99.30
24402;DHT22;12539;48.808;11.292;2023-01-05T12:22:04;11.60;98.90
24402;DHT22;12539;48.808;11.292;2023-01-05T12:32:36;11.60;99.30
24402;DHT22;12539;48.808;11.292;2023-01-05T12:38:13;11.70;99.80
24402;DHT22;12539;48.808;11.292;2023-01-05T12:43:45;11.60;99.90
24402;DHT22;12539;48.808;11.292;2023-01-05T12:49:11;11.60;99.90
24402;DHT22;12539;48.808;11.292;2023-01-05T12:51:49;11.50;99.90
24402;DHT22;12539;48.808;11.292;2023-01-05T12:56:54;11.60;99.90
24402;DHT22;12539;48.808;11.292;2023-01-05T12:59:27;11.60;99.90
24402;DHT22;12539;48.808;11.292;2023-01-05T13:07:24;11.60;99.90
24402;DHT22;12539;48.808;11.292;2023-01-05T13:12:43;11.60;98.70
24402;DHT22;12539;48.808;11.292;2023-01-05T13:15:26;11.60;99.20
24402;DHT22;12539;48.808;11.292;2023-01-05T13:17:55;11.70;99.40
24402;DHT22;12539;48.808;11.292;2023-01-05T13:22:54;11.70;99.40
24402;DHT22;12539;48.808;11.292;2023-01-05T13:25:21;11.70;99.20
24402;DHT22;12539;48.808;11.292;2023-01-05T13:27:48;11.70;99.40
24402;DHT22;12539;48.808;11.292;2023-01-05T13:30:27;11.60;99.20
24402;DHT22;12539;48.808;11.292;2023-01-05T13:33:05;11.60;99.00
24402;DHT22;12539;48.808;11.292;2023-01-05T13:35:55;11.60;99.10
24402;DHT22;12539;48.808;11.292;2023-01-05T13:55:01;11.80;99.20
24402;DHT22;12539;48.808;11.292;2023-01-05T13:57:37;11.70;99.40
24402;DHT22;12539;48.808;11.292;2023-01-05T14:00:07;11.80;99.50
24402;DHT22;12539;48.808;11.292;2023-01-05T14:02:44;11.70;99.30
24402;DHT22;12539;48.808;11.292;2023-01-05T14:05:31;11.70;99.10
24402;DHT22;12539;48.808;11.292;2023-01-05T14:08:00;11.70;99.30
24402;DHT22;12539;48.808;11.292;2023-01-05T14:10:31;11.70;99.60
24402;DHT22;12539;48.808;11.292;2023-01-05T14:12:58;11.70;99.50
24402;DHT22;12539;48.808;11.292;2023-01-05T14:15:44;11.70;99.90
24402;DHT22;12539;48.808;11.292;2023-01-05T14:24:40;11.60;99.20
24402;DHT22;12539;48.808;11.292;2023-01-05T14:27:14;11.60;99.90
24402;DHT22;12539;48.808;11.292;2023-01-05T14:32:12;11.40;99.10
24402;DHT22;12539;48.808;11.292;2023-01-05T14:34:49;11.30;99.10
24402;DHT22;12539;48.808;11.292;2023-01-05T14:37:33;11.20;99.10
24402;DHT22;12539;48.808;11.292;2023-01-05T14:40:00;11.20;99.60
24402;DHT22;12539;48.808;11.292;2023-01-05T14:42:32;11.10;99.30
24402;DHT22;12539;48.808;11.292;2023-01-05T14:45:02;11.10;99.50
24402;DHT22;12539;48.808;11.292;2023-01-05T14:47:43;11.00;99.90
24402;DHT22;12539;48.808;11.292;2023-01-05T14:50:30;11.00;99.90
24402;DHT22;12539;48.808;11.292;2023-01-05T14:55:34;10.90;99.90
24402;DHT22;12539;48.808;11.292;2023-01-05T14:58:12;10.90;99.90
24402;DHT22;12539;48.808;11.292;2023-01-05T15:00:53;10.90;99.90
24402;DHT22;12539;48.808;11.292;2023-01-05T15:03:34;10.90;99.90
24402;DHT22;12539;48.808;11.292;2023-01-05T15:06:05;10.90;99.90
24402;DHT22;12539;48.808;11.292;2023-01-05T15:08:37;10.90;99.90
24402;DHT22;12539;48.808;11.292;2023-01-05T15:11:47;10.90;99.90
24402;DHT22;12539;48.808;11.292;2023-01-05T15:33:59;10.70;99.90
24402;DHT22;12539;48.808;11.292;2023-01-05T15:36:30;10.60;99.90
24402;DHT22;12539;48.808;11.292;2023-01-05T15:38:56;10.60;99.90
24402;DHT22;12539;48.808;11.292;2023-01-05T15:41:24;10.60;99.90
24402;DHT22;12539;48.808;11.292;2023-01-05T15:43:52;10.60;99.90
24402;DHT22;12539;48.808;11.292;2023-01-05T15:46:22;10.60;99.90
24402;DHT22;12539;48.808;11.292;2023-01-05T15:48:52;10.60;99.90
24402;DHT22;12539;48.808;11.292;2023-01-05T15:51:24;10.60;99.90
24402;DHT22;12539;48.808;11.292;2023-01-05T15:53:56;10.60;99.90
24402;DHT22;12539;48.808;11.292;2023-01-05T15:56:32;10.60;99.90
24402;DHT22;12539;48.808;11.292;2023-01-05T15:58:59;10.60;99.90
24402;DHT22;12539;48.808;11.292;2023-01-05T16:01:25;10.60;99.90
24402;DHT22;12539;48.808;11.292;2023-01-05T16:04:07;10.60;99.90
24402;DHT22;12539;48.808;11.292;2023-01-05T16:06:33;10.60;99.90
24402;DHT22;12539;48.808;11.292;2023-01-05T16:12:14;10.60;99.90
24402;DHT22;12539;48.808;11.292;2023-01-05T16:14:58;10.60;99.90
24402;DHT22;12539;48.808;11.292;2023-01-05T16:17:28;10.60;99.90
24402;DHT22;12539;48.808;11.292;2023-01-05T16:20:03;10.60;99.90
24402;DHT22;12539;48.808;11.292;2023-01-05T16:23:05;10.60;99.90
24402;DHT22;12539;48.808;11.292;2023-01-05T16:25:37;10.50;99.90
24402;DHT22;12539;48.808;11.292;2023-01-05T16:28:03;10.50;99.90
24402;DHT22;12539;48.808;11.292;2023-01-05T16:30:40;10.50;99.90
24402;DHT22;12539;48.808;11.292;2023-01-05T16:45:48;10.40;99.90
24402;DHT22;12539;48.808;11.292;2023-01-05T16:53:54;10.30;99.90
24402;DHT22;12539;48.808;11.292;2023-01-05T16:59:01;10.40;99.90
24402;DHT22;12539;48.808;11.292;2023-01-05T17:01:34;10.40;99.90
24402;DHT22;12539;48.808;11.292;2023-01-05T17:04:13;10.40;99.90
24402;DHT22;12539;48.808;11.292;2023-01-05T17:06:40;10.40;99.90
24402;DHT22;12539;48.808;11.292;2023-01-05T17:09:25;10.30;99.90
24402;DHT22;12539;48.808;11.292;2023-01-05T17:11:51;10.20;99.90
24402;DHT22;12539;48.808;11.292;2023-01-05T17:14:18;10.10;99.90
24402;DHT22;12539;48.808;11.292;2023-01-05T17:16:44;10.10;99.90
24402;DHT22;12539;48.808;11.292;2023-01-05T17:19:15;10.00;99.90
24402;DHT22;12539;48.808;11.292;2023-01-05T17:21:48;10.00;99.90
24402;DHT22;12539;48.808;11.292;2023-01-05T17:24:15;9.90;99.90
24402;DHT22;12539;48.808;11.292;2023-01-05T17:26:42;9.90;99.90
24402;DHT22;12539;48.808;11.292;2023-01-05T17:32:08;10.00;99.90
24402;DHT22;12539;48.808;11.292;2023-01-05T17:34:36;10.00;99.90
24402;DHT22;12539;48.808;11.292;2023-01-05T17:37:05;10.00;99.90
24402;DHT22;12539;48.808;11.292;2023-01-05T17:39:31;10.00;99.90
24402;DHT22;12539;48.808;11.292;2023-01-05T17:41:56;10.10;99.90
24402;DHT22;12539;48.808;11.292;2023-01-05T17:44:42;10.10;99.90
24402;DHT22;12539;48.808;11.292;2023-01-05T17:47:08;10.10;99.90
24402;DHT22;12539;48.808;11.292;2023-01-05T17:49:33;10.10;99.90
24402;DHT22;12539;48.808;11.292;2023-01-05T17:51:59;10.20;99.90
24402;DHT22;12539;48.808;11.292;2023-01-05T17:54:24;10.10;99.90
24402;DHT22;12539;48.808;11.292;2023-01-05T17:56:51;10.10;99.90
24402;DHT22;12539;48.808;11.292;2023-01-05T17:59:17;10.10;99.90
24402;DHT22;12539;48.808;11.292;2023-01-05T18:01:42;10.00;99.90
24402;DHT22;12539;48.808;11.292;2023-01-05T18:04:08;10.00;99.90
24402;DHT22;12539;48.808;11.292;2023-01-05T18:06:34;10.00;99.90
24402;DHT22;12539;48.808;11.292;2023-01-05T18:08:59;10.00;99.90
24402;DHT22;12539;48.808;11.292;2023-01-05T18:11:25;9.90;99.90
24402;DHT22;12539;48.808;11.292;2023-01-05T18:13:51;9.80;99.90
24402;DHT22;12539;48.808;11.292;2023-01-05T18:16:16;9.70;99.90
24402;DHT22;12539;48.808;11.292;2023-01-05T18:18:42;9.70;99.90
24402;DHT22;12539;48.808;11.292;2023-01-05T18:21:08;9.70;99.90
24402;DHT22;12539;48.808;11.292;2023-01-05T18:23:34;9.60;99.90
24402;DHT22;12539;48.808;11.292;2023-01-05T18:26:04;9.60;99.90
24402;DHT22;12539;48.808;11.292;2023-01-05T18:28:30;9.50;99.90
24402;DHT22;12539;48.808;11.292;2023-01-05T18:30:56;9.50;99.90
24402;DHT22;12539;48.808;11.292;2023-01-05T18:33:21;9.40;99.90
24402;DHT22;12539;48.808;11.292;2023-01-05T18:35:47;9.30;99.90